Kamiah, ID (83536)

5:25 PM PDT on August 27, 2014 (GMT -0700)
Ash Street Kamiah | Change Station
CLOSE
Current Station
Personal Weather Station
Location: Kamiah, ID
Elevation: 1224 ft
Nearby Weather Stations

Elev 1224 ft 46.22 °N, 116.03 °W | Updated 25 seconds ago

Clear
Clear
91.2 °F
Feels Like 88 °F
N
2.3
Wind Variable Wind from SW
Gusts 2.3 mph

Today
High -- | Low -- °F
--% Chance of Precip.
Yesterday
High -- | Low -- °F
Precip. -- in
5:58 AM 7:31 PM
Waxing Crescent, 5% visible
Pressure 29.91 in
Visibility 10.0 miles
Clouds Clear
Heat Index 88 °F
Dew Point 49 °F
Humidity 24%
Rainfall 0.00 in
Snow Depth Not available.
UV 2 out of 12
Pollen 7.90 out of 12
PM2.5 Good
Flu Activity Not available.
METAR KLWS 272356Z 00000KT 10SM CLR 34/07 A2994 RMK AO2 SLP127 T03440067 10344 20250 56019

More Conditions Fewer Conditions

Pressure 29.91 in
Visibility 10.0 miles
Clouds Clear
Heat Index 88 °F
Dew Point 49 °F
Humidity 24%
Rainfall 0.00 in
Snow Depth Not available.
UV 2 out of 12
Pollen 7.90 out of 12
PM2.5 Good
Flu Activity Not available.
METAR KLWS 272356Z 00000KT 10SM CLR 34/07 A2994 RMK AO2 SLP127 T03440067 10344 20250 56019

More Conditions Fewer Conditions

10-Day Weather Forecast

Almanac

Astronomy

Aug. 27, 2014 Rise Set
Actual Time 5:58 AM PDT 7:31 PM PDT
Civil Twilight 5:26 AM PDT 8:03 PM PDT
Nautical Twilight 4:48 AM PDT 8:41 PM PDT
Astronomical Twilight 4:07 AM PDT 9:22 PM PDT
Moon 8:07 AM PDT (8/27) 8:15 PM PDT (8/27)
Length of Visible Light 14h 36m
Length of Day
13h 33m
Tomorrow will be 3m 6s shorter.
Waxing Crescent, 5% of the Moon is Illuminated
Today
Waxing Crescent
Sep 2
First Quarter
Sep 8
Full
Sep 15
Last Quarter
Sep 24
New

Today's Extremes

State Highs State Lows

Community

WunderPhotos

Upload Photos

1,747,829 photos uploaded!

Nearby

Air Quality

  Air Quality AQ Index Pollutant
Yesterday Good
PM2.5
Current Good
PM2.5
Wednesday Good
PM2.5
Thursday Good
PM2.5
Friday Good
PM2.5

Snow Depth

Station Depth Elevation
Savage Pass 1 in 6170 ft
Secesh Summit 0 in 6520 ft
Brundage Reservoir 0 in 6300 ft
Lookout 0 in 5140 ft
Bear Basin 0 in 5350 ft

Earthquake Activity

City Distance Mag. Time & Date
No recent earthquake activity has been reported nearby.
Minimum magnitude displayed is 2.5.

Coastal Water Temperatures

Place Temperature
No Stations Reporting

Nearby Weather Stations